Terminal Aerodrome Forecast
Issued by NWS

Home | Current Version | Previous Version | Graphics & Text | Print | Product List | Glossary On
Versions: 1 2 3 4 5 6 7 8 9 10 11 12 13 14 15 16 17 18 19 20 21 22
000
FTUS43 KMPX 200500
TAFAXN
TAF
KAXN 200529Z 2006/2106 VRB02KT 6SM BR SKC
     FM200800 12003KT 2SM BR SCT003 SCT250
      TEMPO 2009/2012 1/2SM FG BKN002
     FM201400 14007KT P6SM SCT250
     FM210100 12010KT P6SM BKN070 PROB30 2101/2106 4SM TSRA
      OVC050CB=

USA.gov is the U.S. government's official web portal to all federal, state and local government web resources and services.